sensor_id;sensor_type;location;lat;lon;timestamp;temperature;humidity
77829;DHT22;67019;51.034;3.728;2023-06-10T00:00:19;22.50;65.90
77829;DHT22;67019;51.034;3.728;2023-06-10T00:02:48;22.50;66.90
77829;DHT22;67019;51.034;3.728;2023-06-10T00:05:18;22.40;66.90
77829;DHT22;67019;51.034;3.728;2023-06-10T00:07:49;22.40;66.70
77829;DHT22;67019;51.034;3.728;2023-06-10T00:10:17;22.30;67.00
77829;DHT22;67019;51.034;3.728;2023-06-10T00:12:46;22.30;66.80
77829;DHT22;67019;51.034;3.728;2023-06-10T00:15:13;22.40;66.80
77829;DHT22;67019;51.034;3.728;2023-06-10T00:17:44;22.30;67.30
77829;DHT22;67019;51.034;3.728;2023-06-10T00:20:14;22.30;67.10
77829;DHT22;67019;51.034;3.728;2023-06-10T00:22:42;22.20;67.40
77829;DHT22;67019;51.034;3.728;2023-06-10T00:25:11;22.10;68.10
77829;DHT22;67019;51.034;3.728;2023-06-10T00:27:39;22.10;67.80
77829;DHT22;67019;51.034;3.728;2023-06-10T00:30:07;22.10;68.00
77829;DHT22;67019;51.034;3.728;2023-06-10T00:32:35;22.10;67.60
77829;DHT22;67019;51.034;3.728;2023-06-10T00:35:03;22.10;67.80
77829;DHT22;67019;51.034;3.728;2023-06-10T00:37:32;22.00;67.90
77829;DHT22;67019;51.034;3.728;2023-06-10T00:40:03;21.90;68.90
77829;DHT22;67019;51.034;3.728;2023-06-10T00:42:31;21.90;68.40
77829;DHT22;67019;51.034;3.728;2023-06-10T00:44:59;21.80;68.70
77829;DHT22;67019;51.034;3.728;2023-06-10T00:47:28;21.70;69.00
77829;DHT22;67019;51.034;3.728;2023-06-10T00:49:56;21.70;69.10
77829;DHT22;67019;51.034;3.728;2023-06-10T00:52:27;21.70;68.70
77829;DHT22;67019;51.034;3.728;2023-06-10T00:54:55;21.70;68.80
77829;DHT22;67019;51.034;3.728;2023-06-10T00:57:25;21.70;68.70
77829;DHT22;67019;51.034;3.728;2023-06-10T00:59:54;21.60;69.30
77829;DHT22;67019;51.034;3.728;2023-06-10T01:02:22;21.60;68.90
77829;DHT22;67019;51.034;3.728;2023-06-10T01:04:51;21.50;69.80
77829;DHT22;67019;51.034;3.728;2023-06-10T01:08:01;21.50;69.50
77829;DHT22;67019;51.034;3.728;2023-06-10T01:10:36;21.40;69.50
77829;DHT22;67019;51.034;3.728;2023-06-10T01:13:23;21.40;69.70
77829;DHT22;67019;51.034;3.728;2023-06-10T01:15:52;21.40;69.60
77829;DHT22;67019;51.034;3.728;2023-06-10T01:18:21;21.50;69.60
77829;DHT22;67019;51.034;3.728;2023-06-10T01:20:50;21.40;69.50
77829;DHT22;67019;51.034;3.728;2023-06-10T01:23:21;21.40;70.60
77829;DHT22;67019;51.034;3.728;2023-06-10T01:25:55;21.30;70.10
77829;DHT22;67019;51.034;3.728;2023-06-10T01:31:23;21.20;70.40
77829;DHT22;67019;51.034;3.728;2023-06-10T01:33:52;21.20;70.10
77829;DHT22;67019;51.034;3.728;2023-06-10T01:36:30;21.10;70.70
77829;DHT22;67019;51.034;3.728;2023-06-10T01:38:55;21.10;70.80
77829;DHT22;67019;51.034;3.728;2023-06-10T01:41:23;20.90;71.20
77829;DHT22;67019;51.034;3.728;2023-06-10T01:43:53;20.90;71.50
77829;DHT22;67019;51.034;3.728;2023-06-10T01:46:21;20.70;72.60
77829;DHT22;67019;51.034;3.728;2023-06-10T01:48:49;20.60;73.00
77829;DHT22;67019;51.034;3.728;2023-06-10T01:51:17;20.70;72.70
77829;DHT22;67019;51.034;3.728;2023-06-10T01:53:46;20.90;72.00
77829;DHT22;67019;51.034;3.728;2023-06-10T01:56:13;20.80;72.10
77829;DHT22;67019;51.034;3.728;2023-06-10T01:58:44;20.70;72.80
77829;DHT22;67019;51.034;3.728;2023-06-10T02:01:12;20.50;73.40
77829;DHT22;67019;51.034;3.728;2023-06-10T02:03:39;20.40;73.60
77829;DHT22;67019;51.034;3.728;2023-06-10T02:06:07;20.60;73.30
77829;DHT22;67019;51.034;3.728;2023-06-10T02:08:35;20.60;73.20
77829;DHT22;67019;51.034;3.728;2023-06-10T02:11:02;20.50;74.10
77829;DHT22;67019;51.034;3.728;2023-06-10T02:13:32;20.60;73.50
77829;DHT22;67019;51.034;3.728;2023-06-10T02:16:01;20.50;73.80
77829;DHT22;67019;51.034;3.728;2023-06-10T02:18:30;20.60;73.60
77829;DHT22;67019;51.034;3.728;2023-06-10T02:20:57;20.50;73.90
77829;DHT22;67019;51.034;3.728;2023-06-10T02:23:26;20.40;74.70
77829;DHT22;67019;51.034;3.728;2023-06-10T02:25:55;20.40;74.70
77829;DHT22;67019;51.034;3.728;2023-06-10T02:28:22;20.40;75.10
77829;DHT22;67019;51.034;3.728;2023-06-10T02:30:50;20.40;75.10
77829;DHT22;67019;51.034;3.728;2023-06-10T02:33:19;20.50;74.80
77829;DHT22;67019;51.034;3.728;2023-06-10T02:35:47;20.50;74.60
77829;DHT22;67019;51.034;3.728;2023-06-10T02:38:15;20.10;75.90
77829;DHT22;67019;51.034;3.728;2023-06-10T02:40:43;20.20;76.30
77829;DHT22;67019;51.034;3.728;2023-06-10T02:43:12;20.10;77.20
77829;DHT22;67019;51.034;3.728;2023-06-10T02:45:39;20.10;77.10
77829;DHT22;67019;51.034;3.728;2023-06-10T02:48:07;20.30;76.30
77829;DHT22;67019;51.034;3.728;2023-06-10T02:50:36;20.10;76.40
77829;DHT22;67019;51.034;3.728;2023-06-10T02:53:05;20.30;76.10
77829;DHT22;67019;51.034;3.728;2023-06-10T02:55:33;20.20;76.50
77829;DHT22;67019;51.034;3.728;2023-06-10T02:58:01;20.20;76.70
77829;DHT22;67019;51.034;3.728;2023-06-10T03:00:31;20.40;76.40
77829;DHT22;67019;51.034;3.728;2023-06-10T03:02:59;20.10;77.30
77829;DHT22;67019;51.034;3.728;2023-06-10T03:05:28;20.10;77.50
77829;DHT22;67019;51.034;3.728;2023-06-10T03:07:58;20.30;77.50
77829;DHT22;67019;51.034;3.728;2023-06-10T03:10:27;20.10;77.40
77829;DHT22;67019;51.034;3.728;2023-06-10T03:12:55;20.10;78.00
77829;DHT22;67019;51.034;3.728;2023-06-10T03:15:23;20.10;77.90
77829;DHT22;67019;51.034;3.728;2023-06-10T03:17:51;20.00;78.70
77829;DHT22;67019;51.034;3.728;2023-06-10T03:20:18;20.00;79.10
77829;DHT22;67019;51.034;3.728;2023-06-10T03:22:47;19.90;80.10
77829;DHT22;67019;51.034;3.728;2023-06-10T03:25:15;19.80;79.70
77829;DHT22;67019;51.034;3.728;2023-06-10T03:27:43;19.80;80.20
77829;DHT22;67019;51.034;3.728;2023-06-10T03:30:12;20.00;79.60
77829;DHT22;67019;51.034;3.728;2023-06-10T03:32:41;19.80;80.40
77829;DHT22;67019;51.034;3.728;2023-06-10T03:35:09;19.90;80.50
77829;DHT22;67019;51.034;3.728;2023-06-10T03:37:38;19.80;80.70
77829;DHT22;67019;51.034;3.728;2023-06-10T03:40:10;19.90;80.50
77829;DHT22;67019;51.034;3.728;2023-06-10T03:42:37;19.60;81.80
77829;DHT22;67019;51.034;3.728;2023-06-10T03:45:05;19.60;82.00
77829;DHT22;67019;51.034;3.728;2023-06-10T03:47:37;19.70;81.80
77829;DHT22;67019;51.034;3.728;2023-06-10T03:50:08;19.80;81.30
77829;DHT22;67019;51.034;3.728;2023-06-10T03:52:38;19.70;82.00
77829;DHT22;67019;51.034;3.728;2023-06-10T03:55:06;19.50;83.00
77829;DHT22;67019;51.034;3.728;2023-06-10T03:57:34;19.60;82.80
77829;DHT22;67019;51.034;3.728;2023-06-10T04:00:03;19.60;83.10
77829;DHT22;67019;51.034;3.728;2023-06-10T04:02:36;19.70;82.50
77829;DHT22;67019;51.034;3.728;2023-06-10T04:05:05;19.70;82.90
77829;DHT22;67019;51.034;3.728;2023-06-10T04:07:32;19.80;82.60
77829;DHT22;67019;51.034;3.728;2023-06-10T04:10:00;19.80;82.90
77829;DHT22;67019;51.034;3.728;2023-06-10T04:12:32;19.60;83.90
77829;DHT22;67019;51.034;3.728;2023-06-10T04:15:02;19.50;84.00
77829;DHT22;67019;51.034;3.728;2023-06-10T04:17:30;19.50;84.50
77829;DHT22;67019;51.034;3.728;2023-06-10T04:19:58;19.70;84.50
77829;DHT22;67019;51.034;3.728;2023-06-10T04:22:27;19.80;83.60
77829;DHT22;67019;51.034;3.728;2023-06-10T04:24:55;19.80;83.70
77829;DHT22;67019;51.034;3.728;2023-06-10T04:27:22;19.70;84.30
77829;DHT22;67019;51.034;3.728;2023-06-10T04:29:50;19.80;84.10
77829;DHT22;67019;51.034;3.728;2023-06-10T04:32:19;19.80;83.80
77829;DHT22;67019;51.034;3.728;2023-06-10T04:34:46;19.90;83.70
77829;DHT22;67019;51.034;3.728;2023-06-10T04:37:14;20.00;83.50
77829;DHT22;67019;51.034;3.728;2023-06-10T04:39:42;19.70;84.90
77829;DHT22;67019;51.034;3.728;2023-06-10T04:42:12;19.80;84.50
77829;DHT22;67019;51.034;3.728;2023-06-10T04:44:40;20.00;83.90
77829;DHT22;67019;51.034;3.728;2023-06-10T04:47:10;20.10;83.60
77829;DHT22;67019;51.034;3.728;2023-06-10T04:49:38;19.90;84.70
77829;DHT22;67019;51.034;3.728;2023-06-10T04:52:06;19.70;85.90
77829;DHT22;67019;51.034;3.728;2023-06-10T04:54:34;19.80;85.80
77829;DHT22;67019;51.034;3.728;2023-06-10T04:57:02;19.90;85.80
77829;DHT22;67019;51.034;3.728;2023-06-10T04:59:29;20.00;85.00
77829;DHT22;67019;51.034;3.728;2023-06-10T05:01:58;19.90;85.00
77829;DHT22;67019;51.034;3.728;2023-06-10T05:04:28;19.90;86.20
77829;DHT22;67019;51.034;3.728;2023-06-10T05:06:56;19.80;85.90
77829;DHT22;67019;51.034;3.728;2023-06-10T05:09:24;19.90;86.00
77829;DHT22;67019;51.034;3.728;2023-06-10T05:11:52;20.00;86.10
77829;DHT22;67019;51.034;3.728;2023-06-10T05:14:22;20.20;84.90
77829;DHT22;67019;51.034;3.728;2023-06-10T05:16:50;20.30;84.60
77829;DHT22;67019;51.034;3.728;2023-06-10T05:19:20;20.40;84.20
77829;DHT22;67019;51.034;3.728;2023-06-10T05:21:48;20.40;84.20
77829;DHT22;67019;51.034;3.728;2023-06-10T05:24:16;20.40;84.30
77829;DHT22;67019;51.034;3.728;2023-06-10T05:26:45;20.40;84.50
77829;DHT22;67019;51.034;3.728;2023-06-10T05:29:14;20.40;85.00
77829;DHT22;67019;51.034;3.728;2023-06-10T05:31:42;20.50;85.50
77829;DHT22;67019;51.034;3.728;2023-06-10T05:34:10;20.70;83.60
77829;DHT22;67019;51.034;3.728;2023-06-10T05:36:39;20.70;83.70
77829;DHT22;67019;51.034;3.728;2023-06-10T05:39:06;20.50;84.80
77829;DHT22;67019;51.034;3.728;2023-06-10T05:41:34;20.60;84.30
77829;DHT22;67019;51.034;3.728;2023-06-10T05:44:02;20.70;83.80
77829;DHT22;67019;51.034;3.728;2023-06-10T05:46:30;20.70;83.80
77829;DHT22;67019;51.034;3.728;2023-06-10T05:48:59;20.70;84.10
77829;DHT22;67019;51.034;3.728;2023-06-10T05:51:32;20.60;84.50
77829;DHT22;67019;51.034;3.728;2023-06-10T05:53:56;20.70;84.20
77829;DHT22;67019;51.034;3.728;2023-06-10T05:56:24;21.00;83.10
77829;DHT22;67019;51.034;3.728;2023-06-10T05:58:52;21.10;82.70
77829;DHT22;67019;51.034;3.728;2023-06-10T06:01:20;21.20;82.40
77829;DHT22;67019;51.034;3.728;2023-06-10T06:03:47;21.20;81.90
77829;DHT22;67019;51.034;3.728;2023-06-10T06:06:17;21.40;82.30
77829;DHT22;67019;51.034;3.728;2023-06-10T06:08:47;21.30;81.80
77829;DHT22;67019;51.034;3.728;2023-06-10T06:11:16;21.40;80.90
77829;DHT22;67019;51.034;3.728;2023-06-10T06:13:46;21.40;81.00
77829;DHT22;67019;51.034;3.728;2023-06-10T06:16:22;21.50;81.00
77829;DHT22;67019;51.034;3.728;2023-06-10T06:18:51;21.70;81.70
77829;DHT22;67019;51.034;3.728;2023-06-10T06:21:18;21.60;80.80
77829;DHT22;67019;51.034;3.728;2023-06-10T06:23:47;21.80;79.60
77829;DHT22;67019;51.034;3.728;2023-06-10T06:26:14;21.80;79.10
77829;DHT22;67019;51.034;3.728;2023-06-10T06:28:42;21.80;79.60
77829;DHT22;67019;51.034;3.728;2023-06-10T06:31:11;21.90;78.70
77829;DHT22;67019;51.034;3.728;2023-06-10T06:33:42;21.90;78.70
77829;DHT22;67019;51.034;3.728;2023-06-10T06:36:09;22.00;78.60
77829;DHT22;67019;51.034;3.728;2023-06-10T06:38:37;22.00;78.20
77829;DHT22;67019;51.034;3.728;2023-06-10T06:41:05;22.00;78.40
77829;DHT22;67019;51.034;3.728;2023-06-10T06:43:33;22.10;78.40
77829;DHT22;67019;51.034;3.728;2023-06-10T06:46:01;22.20;77.80
77829;DHT22;67019;51.034;3.728;2023-06-10T06:48:29;22.20;77.00
77829;DHT22;67019;51.034;3.728;2023-06-10T06:50:56;22.30;77.00
77829;DHT22;67019;51.034;3.728;2023-06-10T06:53:26;22.60;76.40
77829;DHT22;67019;51.034;3.728;2023-06-10T06:55:53;22.70;76.20
77829;DHT22;67019;51.034;3.728;2023-06-10T06:58:21;22.70;75.70
77829;DHT22;67019;51.034;3.728;2023-06-10T07:00:49;22.70;75.70
77829;DHT22;67019;51.034;3.728;2023-06-10T07:03:16;22.70;76.20
77829;DHT22;67019;51.034;3.728;2023-06-10T07:05:44;22.80;75.90
77829;DHT22;67019;51.034;3.728;2023-06-10T07:08:14;22.90;75.40
77829;DHT22;67019;51.034;3.728;2023-06-10T07:10:41;22.90;75.30
77829;DHT22;67019;51.034;3.728;2023-06-10T07:13:09;23.10;76.20
77829;DHT22;67019;51.034;3.728;2023-06-10T07:15:38;23.20;74.70
77829;DHT22;67019;51.034;3.728;2023-06-10T07:18:07;23.60;73.00
77829;DHT22;67019;51.034;3.728;2023-06-10T07:20:35;23.60;73.00
77829;DHT22;67019;51.034;3.728;2023-06-10T07:23:03;23.70;72.70
77829;DHT22;67019;51.034;3.728;2023-06-10T07:25:31;23.80;71.90
77829;DHT22;67019;51.034;3.728;2023-06-10T07:28:04;23.90;71.90
77829;DHT22;67019;51.034;3.728;2023-06-10T07:33:20;24.30;70.10
77829;DHT22;67019;51.034;3.728;2023-06-10T07:35:48;24.30;69.60
77829;DHT22;67019;51.034;3.728;2023-06-10T07:38:17;24.10;70.30
77829;DHT22;67019;51.034;3.728;2023-06-10T07:40:45;24.00;70.90
77829;DHT22;67019;51.034;3.728;2023-06-10T07:43:17;24.10;70.70
77829;DHT22;67019;51.034;3.728;2023-06-10T07:45:43;24.10;70.70
77829;DHT22;67019;51.034;3.728;2023-06-10T07:48:11;24.20;69.50
77829;DHT22;67019;51.034;3.728;2023-06-10T07:50:40;24.30;69.40
77829;DHT22;67019;51.034;3.728;2023-06-10T07:53:35;24.10;69.30
77829;DHT22;67019;51.034;3.728;2023-06-10T07:56:02;24.20;69.40
77829;DHT22;67019;51.034;3.728;2023-06-10T07:58:29;24.40;69.40
77829;DHT22;67019;51.034;3.728;2023-06-10T08:00:58;24.40;69.20
77829;DHT22;67019;51.034;3.728;2023-06-10T08:03:28;24.30;69.60
77829;DHT22;67019;51.034;3.728;2023-06-10T08:05:56;24.40;69.10
77829;DHT22;67019;51.034;3.728;2023-06-10T08:08:25;24.60;68.30
77829;DHT22;67019;51.034;3.728;2023-06-10T08:10:52;24.70;67.00
77829;DHT22;67019;51.034;3.728;2023-06-10T08:13:20;24.80;67.90
77829;DHT22;67019;51.034;3.728;2023-06-10T08:15:48;24.90;66.20
77829;DHT22;67019;51.034;3.728;2023-06-10T08:18:19;24.90;66.20
77829;DHT22;67019;51.034;3.728;2023-06-10T08:20:47;24.90;65.80
77829;DHT22;67019;51.034;3.728;2023-06-10T08:23:18;24.80;65.20
77829;DHT22;67019;51.034;3.728;2023-06-10T08:25:47;25.00;64.60
77829;DHT22;67019;51.034;3.728;2023-06-10T08:28:17;25.00;65.40
77829;DHT22;67019;51.034;3.728;2023-06-10T08:30:45;25.20;62.00
77829;DHT22;67019;51.034;3.728;2023-06-10T08:33:15;25.30;63.00
77829;DHT22;67019;51.034;3.728;2023-06-10T08:35:42;25.40;62.80
77829;DHT22;67019;51.034;3.728;2023-06-10T08:38:12;25.60;62.80
77829;DHT22;67019;51.034;3.728;2023-06-10T08:40:40;25.90;61.70
77829;DHT22;67019;51.034;3.728;2023-06-10T08:45:57;25.70;62.20
77829;DHT22;67019;51.034;3.728;2023-06-10T08:48:32;25.60;62.60
77829;DHT22;67019;51.034;3.728;2023-06-10T08:50:58;25.60;62.80
77829;DHT22;67019;51.034;3.728;2023-06-10T08:53:27;25.60;62.20
77829;DHT22;67019;51.034;3.728;2023-06-10T08:56:03;25.90;62.30
77829;DHT22;67019;51.034;3.728;2023-06-10T08:58:32;25.90;60.60
77829;DHT22;67019;51.034;3.728;2023-06-10T09:01:02;25.90;61.10
77829;DHT22;67019;51.034;3.728;2023-06-10T09:03:30;26.10;61.40
77829;DHT22;67019;51.034;3.728;2023-06-10T09:06:00;26.30;61.10
77829;DHT22;67019;51.034;3.728;2023-06-10T09:08:28;26.40;60.40
77829;DHT22;67019;51.034;3.728;2023-06-10T09:10:55;26.50;59.00
77829;DHT22;67019;51.034;3.728;2023-06-10T09:13:25;26.30;58.50
77829;DHT22;67019;51.034;3.728;2023-06-10T09:15:57;26.50;59.30
77829;DHT22;67019;51.034;3.728;2023-06-10T09:18:30;26.70;59.70
77829;DHT22;67019;51.034;3.728;2023-06-10T09:20:57;26.80;60.50
77829;DHT22;67019;51.034;3.728;2023-06-10T09:23:34;26.90;59.60
77829;DHT22;67019;51.034;3.728;2023-06-10T09:26:01;27.00;59.30
77829;DHT22;67019;51.034;3.728;2023-06-10T09:28:30;27.10;58.00
77829;DHT22;67019;51.034;3.728;2023-06-10T09:31:05;27.20;58.70
77829;DHT22;67019;51.034;3.728;2023-06-10T09:33:40;27.30;58.30
77829;DHT22;67019;51.034;3.728;2023-06-10T09:36:08;27.20;58.80
77829;DHT22;67019;51.034;3.728;2023-06-10T09:38:38;27.20;58.10
77829;DHT22;67019;51.034;3.728;2023-06-10T09:41:06;27.20;57.60
77829;DHT22;67019;51.034;3.728;2023-06-10T09:43:44;27.30;57.40
77829;DHT22;67019;51.034;3.728;2023-06-10T09:46:20;27.50;57.00
77829;DHT22;67019;51.034;3.728;2023-06-10T09:48:49;27.60;56.70
77829;DHT22;67019;51.034;3.728;2023-06-10T09:51:19;27.70;55.80
77829;DHT22;67019;51.034;3.728;2023-06-10T09:53:53;27.70;55.20
77829;DHT22;67019;51.034;3.728;2023-06-10T09:56:21;27.60;55.80
77829;DHT22;67019;51.034;3.728;2023-06-10T09:58:55;27.90;55.50
77829;DHT22;67019;51.034;3.728;2023-06-10T10:01:29;27.90;55.50
77829;DHT22;67019;51.034;3.728;2023-06-10T10:03:58;27.80;55.50
77829;DHT22;67019;51.034;3.728;2023-06-10T10:06:28;27.90;55.10
77829;DHT22;67019;51.034;3.728;2023-06-10T10:08:59;28.10;54.80
77829;DHT22;67019;51.034;3.728;2023-06-10T10:11:27;28.30;54.20
77829;DHT22;67019;51.034;3.728;2023-06-10T10:14:00;28.30;55.00
77829;DHT22;67019;51.034;3.728;2023-06-10T10:16:30;28.40;54.00
77829;DHT22;67019;51.034;3.728;2023-06-10T10:21:39;28.40;54.00
77829;DHT22;67019;51.034;3.728;2023-06-10T10:24:20;28.70;53.60
77829;DHT22;67019;51.034;3.728;2023-06-10T10:26:50;28.60;52.10
77829;DHT22;67019;51.034;3.728;2023-06-10T10:29:31;28.70;52.50
77829;DHT22;67019;51.034;3.728;2023-06-10T10:32:00;28.60;51.30
77829;DHT22;67019;51.034;3.728;2023-06-10T10:34:58;28.60;52.60
77829;DHT22;67019;51.034;3.728;2023-06-10T10:37:21;28.70;52.60
77829;DHT22;67019;51.034;3.728;2023-06-10T10:39:49;28.90;51.70
77829;DHT22;67019;51.034;3.728;2023-06-10T10:42:18;28.90;51.40
77829;DHT22;67019;51.034;3.728;2023-06-10T10:44:46;28.80;51.20
77829;DHT22;67019;51.034;3.728;2023-06-10T10:47:16;29.00;50.80
77829;DHT22;67019;51.034;3.728;2023-06-10T10:49:45;28.90;50.40
77829;DHT22;67019;51.034;3.728;2023-06-10T10:52:14;29.00;50.20
77829;DHT22;67019;51.034;3.728;2023-06-10T10:54:46;28.80;50.00
77829;DHT22;67019;51.034;3.728;2023-06-10T10:57:20;29.00;49.30
77829;DHT22;67019;51.034;3.728;2023-06-10T10:59:55;29.10;48.60
77829;DHT22;67019;51.034;3.728;2023-06-10T11:02:42;29.30;48.30
77829;DHT22;67019;51.034;3.728;2023-06-10T11:05:17;29.30;45.30
77829;DHT22;67019;51.034;3.728;2023-06-10T11:07:55;29.10;45.90
77829;DHT22;67019;51.034;3.728;2023-06-10T11:10:30;29.10;46.80
77829;DHT22;67019;51.034;3.728;2023-06-10T11:12:59;29.20;46.90
77829;DHT22;67019;51.034;3.728;2023-06-10T11:15:28;29.20;47.20
77829;DHT22;67019;51.034;3.728;2023-06-10T11:18:58;29.30;47.10
77829;DHT22;67019;51.034;3.728;2023-06-10T11:20:53;29.60;46.30
77829;DHT22;67019;51.034;3.728;2023-06-10T11:26:16;29.60;45.10
77829;DHT22;67019;51.034;3.728;2023-06-10T11:31:36;29.60;44.30
77829;DHT22;67019;51.034;3.728;2023-06-10T11:34:00;29.60;44.70
77829;DHT22;67019;51.034;3.728;2023-06-10T11:36:32;29.50;44.30
77829;DHT22;67019;51.034;3.728;2023-06-10T11:39:02;29.70;44.40
77829;DHT22;67019;51.034;3.728;2023-06-10T11:41:30;29.30;44.40
77829;DHT22;67019;51.034;3.728;2023-06-10T11:44:03;29.30;44.80
77829;DHT22;67019;51.034;3.728;2023-06-10T11:46:35;29.30;44.70
77829;DHT22;67019;51.034;3.728;2023-06-10T11:49:08;29.30;44.10
77829;DHT22;67019;51.034;3.728;2023-06-10T11:51:38;29.50;44.10
77829;DHT22;67019;51.034;3.728;2023-06-10T11:54:08;29.60;43.90
77829;DHT22;67019;51.034;3.728;2023-06-10T11:56:36;29.60;43.60
77829;DHT22;67019;51.034;3.728;2023-06-10T11:59:06;29.50;43.40
77829;DHT22;67019;51.034;3.728;2023-06-10T12:01:36;29.80;43.20
77829;DHT22;67019;51.034;3.728;2023-06-10T12:04:08;29.90;42.00
77829;DHT22;67019;51.034;3.728;2023-06-10T12:06:45;29.80;42.70
77829;DHT22;67019;51.034;3.728;2023-06-10T12:09:23;29.50;43.20
77829;DHT22;67019;51.034;3.728;2023-06-10T12:11:55;29.80;43.00
77829;DHT22;67019;51.034;3.728;2023-06-10T12:14:56;30.00;43.20
77829;DHT22;67019;51.034;3.728;2023-06-10T12:20:09;30.40;42.20
77829;DHT22;67019;51.034;3.728;2023-06-10T12:22:42;30.10;42.40
77829;DHT22;67019;51.034;3.728;2023-06-10T12:25:11;30.00;42.10
77829;DHT22;67019;51.034;3.728;2023-06-10T12:27:40;29.80;41.40
77829;DHT22;67019;51.034;3.728;2023-06-10T12:30:08;30.00;41.40
77829;DHT22;67019;51.034;3.728;2023-06-10T12:32:46;30.50;40.90
77829;DHT22;67019;51.034;3.728;2023-06-10T12:35:19;30.60;40.70
77829;DHT22;67019;51.034;3.728;2023-06-10T12:38:01;30.40;41.20
77829;DHT22;67019;51.034;3.728;2023-06-10T12:40:31;30.20;41.60
77829;DHT22;67019;51.034;3.728;2023-06-10T12:43:08;30.40;41.60
77829;DHT22;67019;51.034;3.728;2023-06-10T12:45:34;30.50;40.90
77829;DHT22;67019;51.034;3.728;2023-06-10T12:48:10;30.50;40.30
77829;DHT22;67019;51.034;3.728;2023-06-10T12:50:41;30.60;40.00
77829;DHT22;67019;51.034;3.728;2023-06-10T12:53:10;30.90;40.40
77829;DHT22;67019;51.034;3.728;2023-06-10T12:55:38;31.40;40.20
77829;DHT22;67019;51.034;3.728;2023-06-10T12:58:06;31.10;40.20
77829;DHT22;67019;51.034;3.728;2023-06-10T13:00:34;31.00;40.60
77829;DHT22;67019;51.034;3.728;2023-06-10T13:03:02;31.10;40.40
77829;DHT22;67019;51.034;3.728;2023-06-10T13:05:32;31.40;39.70
77829;DHT22;67019;51.034;3.728;2023-06-10T13:08:00;31.70;38.90
77829;DHT22;67019;51.034;3.728;2023-06-10T13:10:27;31.50;39.20
77829;DHT22;67019;51.034;3.728;2023-06-10T13:12:55;31.40;39.50
77829;DHT22;67019;51.034;3.728;2023-06-10T13:15:23;31.70;39.40
77829;DHT22;67019;51.034;3.728;2023-06-10T13:17:52;31.70;39.10
77829;DHT22;67019;51.034;3.728;2023-06-10T13:20:20;31.60;38.90
77829;DHT22;67019;51.034;3.728;2023-06-10T13:22:49;31.20;38.80
77829;DHT22;67019;51.034;3.728;2023-06-10T13:25:18;31.20;39.30
77829;DHT22;67019;51.034;3.728;2023-06-10T13:27:45;30.80;39.50
77829;DHT22;67019;51.034;3.728;2023-06-10T13:30:13;31.00;39.40
77829;DHT22;67019;51.034;3.728;2023-06-10T13:32:41;31.10;39.40
77829;DHT22;67019;51.034;3.728;2023-06-10T13:35:08;31.20;39.40
77829;DHT22;67019;51.034;3.728;2023-06-10T13:37:36;31.20;39.10
77829;DHT22;67019;51.034;3.728;2023-06-10T13:40:04;32.50;38.10
77829;DHT22;67019;51.034;3.728;2023-06-10T13:42:32;33.10;37.90
77829;DHT22;67019;51.034;3.728;2023-06-10T13:45:03;32.90;36.80
77829;DHT22;67019;51.034;3.728;2023-06-10T13:47:31;33.10;36.60
77829;DHT22;67019;51.034;3.728;2023-06-10T13:49:58;33.30;36.40
77829;DHT22;67019;51.034;3.728;2023-06-10T13:52:26;32.20;37.90
77829;DHT22;67019;51.034;3.728;2023-06-10T13:54:54;31.40;38.90
77829;DHT22;67019;51.034;3.728;2023-06-10T13:57:21;31.10;39.20
77829;DHT22;67019;51.034;3.728;2023-06-10T13:59:49;31.60;39.20
77829;DHT22;67019;51.034;3.728;2023-06-10T14:02:16;32.60;37.80
77829;DHT22;67019;51.034;3.728;2023-06-10T14:04:46;33.00;37.40
77829;DHT22;67019;51.034;3.728;2023-06-10T14:07:14;32.90;37.20
77829;DHT22;67019;51.034;3.728;2023-06-10T14:09:42;31.80;38.70
77829;DHT22;67019;51.034;3.728;2023-06-10T14:12:10;31.00;39.30
77829;DHT22;67019;51.034;3.728;2023-06-10T14:14:39;31.20;38.80
77829;DHT22;67019;51.034;3.728;2023-06-10T14:17:06;31.80;38.70
77829;DHT22;67019;51.034;3.728;2023-06-10T14:19:34;32.40;37.90
77829;DHT22;67019;51.034;3.728;2023-06-10T14:22:01;32.90;37.20
77829;DHT22;67019;51.034;3.728;2023-06-10T14:24:29;32.40;37.80
77829;DHT22;67019;51.034;3.728;2023-06-10T14:26:56;32.40;37.70
77829;DHT22;67019;51.034;3.728;2023-06-10T14:29:25;32.90;37.20
77829;DHT22;67019;51.034;3.728;2023-06-10T14:31:55;33.50;36.30
77829;DHT22;67019;51.034;3.728;2023-06-10T14:34:23;33.90;36.10
77829;DHT22;67019;51.034;3.728;2023-06-10T14:36:52;34.80;35.60
77829;DHT22;67019;51.034;3.728;2023-06-10T14:39:20;34.00;36.00
77829;DHT22;67019;51.034;3.728;2023-06-10T14:41:47;33.30;36.30
77829;DHT22;67019;51.034;3.728;2023-06-10T14:44:15;33.10;36.40
77829;DHT22;67019;51.034;3.728;2023-06-10T14:46:42;33.10;36.60
77829;DHT22;67019;51.034;3.728;2023-06-10T14:49:10;33.10;36.80
77829;DHT22;67019;51.034;3.728;2023-06-10T14:51:39;33.00;36.70
77829;DHT22;67019;51.034;3.728;2023-06-10T14:54:06;32.60;36.80
77829;DHT22;67019;51.034;3.728;2023-06-10T14:56:34;32.80;37.00
77829;DHT22;67019;51.034;3.728;2023-06-10T14:59:02;33.70;36.10
77829;DHT22;67019;51.034;3.728;2023-06-10T15:01:29;34.60;35.20
77829;DHT22;67019;51.034;3.728;2023-06-10T15:03:57;36.40;33.40
77829;DHT22;67019;51.034;3.728;2023-06-10T15:06:24;37.10;32.90
77829;DHT22;67019;51.034;3.728;2023-06-10T15:08:52;35.60;33.50
77829;DHT22;67019;51.034;3.728;2023-06-10T15:11:20;35.80;33.40
77829;DHT22;67019;51.034;3.728;2023-06-10T15:13:48;35.70;33.00
77829;DHT22;67019;51.034;3.728;2023-06-10T15:16:16;34.90;34.10
77829;DHT22;67019;51.034;3.728;2023-06-10T15:18:43;33.80;35.60
77829;DHT22;67019;51.034;3.728;2023-06-10T15:21:11;33.70;35.40
77829;DHT22;67019;51.034;3.728;2023-06-10T15:23:39;34.00;35.20
77829;DHT22;67019;51.034;3.728;2023-06-10T15:26:06;33.80;35.20
77829;DHT22;67019;51.034;3.728;2023-06-10T15:28:34;33.90;35.20
77829;DHT22;67019;51.034;3.728;2023-06-10T15:31:01;33.30;35.60
77829;DHT22;67019;51.034;3.728;2023-06-10T15:33:29;32.50;36.60
77829;DHT22;67019;51.034;3.728;2023-06-10T15:35:57;32.10;37.00
77829;DHT22;67019;51.034;3.728;2023-06-10T15:38:24;31.70;37.90
77829;DHT22;67019;51.034;3.728;2023-06-10T15:40:52;31.20;38.20
77829;DHT22;67019;51.034;3.728;2023-06-10T15:43:20;31.40;37.50
77829;DHT22;67019;51.034;3.728;2023-06-10T15:45:48;32.70;36.40
77829;DHT22;67019;51.034;3.728;2023-06-10T15:48:15;34.40;34.60
77829;DHT22;67019;51.034;3.728;2023-06-10T15:50:43;35.50;33.40
77829;DHT22;67019;51.034;3.728;2023-06-10T15:53:11;35.10;33.60
77829;DHT22;67019;51.034;3.728;2023-06-10T15:55:39;35.90;33.10
77829;DHT22;67019;51.034;3.728;2023-06-10T15:58:06;35.50;33.20
77829;DHT22;67019;51.034;3.728;2023-06-10T16:00:34;34.00;34.70
77829;DHT22;67019;51.034;3.728;2023-06-10T16:03:02;33.70;34.90